WEATHER DATA

YESTERDAY
Time Temp. Dewp. Hum. Wind dir Wind speed Wind gust Bar. 1h Prec. 24h Prec.
00:08 17.4 16.9 97 85 1.9 5.8 1018.1 0.0000 0.0000
00:28 17.1 16.8 98 79 1.9 5.8 1018.1 0.0000 0.0000
00:38 17 16.7 98 83 2.5 5.8 1018 0.0000 0.0000
00:48 16.9 16.6 98 64 1.9 5.3 1018 0.0000 0.0000
00:59 16.8 16.5 98 81 1.9 4.2 1018 0.0000 0.0000
01:09 16.7 16.4 98 73 1.1 2.8 1018 0.0000 0.0000
01:18 16.5 16.2 98 72 1.1 3.3 1018 0.0000 0.0000
01:29 16.4 16.1 98 81 1.1 3.3 1018 0.0000 0.0000
01:39 16.3 16 98 90 1.1 2.5 1017.9 0.0000 0.0000
01:49 16.1 15.8 98 90 1.7 2.8 1017.7 0.0000 0.0000
01:59 16 15.7 98 78 1.1 3.6 1017.7 0.0000 0.0000
02:09 15.9 15.6 98 90 0.8 1.9 1017.6 0.0000 0.0000
02:19 15.8 15.5 98 101 0.8 1.9 1017.7 0.0000 0.0000
02:29 15.7 15.5 99 81 1.1 2.8 1017.7 0.0000 0.0000
02:40 15.6 15.4 99 75 0.8 1.9 1017.7 0.0000 0.0000
02:49 15.5 15.3 99 57 0.8 1.9 1017.7 0.0000 0.0000
02:59 15.4 15.2 99 68 0.8 1.7 1017.7 0.0000 0.0000
03:09 15.3 15.1 99 48 0.3 1.7 1017.6 0.0000 0.0000
03:20 15.2 15 99 90 0.3 1.7 1017.6 0.0000 0.0000
03:30 15.1 14.9 99 90 0.3 1.1 1017.6 0.0000 0.0000
03:40 15 14.8 99 90 0.3 1.1 1017.5 0.0000 0.0000
03:50 14.9 14.7 99 90 0.3 1.9 1017.5 0.0000 0.0000
04:00 14.9 14.7 99 26 0.3 1.1 1017.5 0.0000 0.0000
04:10 14.8 14.6 99 135 0.3 1.1 1017.5 0.0000 0.0000
04:20 14.7 14.5 99 90 0.3 1.1 1017.5 0.0000 0.0000
04:31 14.7 14.5 99 90 0.3 0.8 1017.4 0.0000 0.0000
04:41 14.6 14.4 99 125 0.3 1.1 1017.4 0.0000 0.0000
04:51 14.5 14.3 99 185 0.3 0.8 1017.4 0.0000 0.0000
05:01 14.4 14.2 99 236 0.3 0.8 1017.4 0.0000 0.0000
05:11 14.3 14.1 99 0.3 1.1 1017.3 0.0000 0.0000
05:21 14.2 14 99 270 0.3 1.1 1017.4 0.0000 0.0000
05:31 14.1 13.9 99 0 0.8 1017.4 0.0000 0.0000
05:42 14 14 100 258 1.1 3.3 1017.4 0.0000 0.0000
05:43 14 14 100 236 2.5 6.9 1017.4 0.0000 0.0000
05:54 14 14 100 230 3.6 8.9 1017.6 0.0000 0.0000
06:04 14 14 100 240 3.3 5 1017.6 0.0000 0.0000
06:14 14.1 14.1 100 239 4.4 6.1 1017.7 0.0000 0.0000
06:24 14.1 14.1 100 240 6.1 10.3 1017.9 0.0000 0.0000
06:35 14.1 14.1 100 240 6.9 12.2 1017.9 0.0000 0.0000
06:44 14.1 14.1 100 229 7.5 10.6 1018 0.0000 0.0000
06:54 14.2 14.2 100 235 6.9 9.4 1018 0.0000 0.0000
07:06 14.3 14.3 100 231 3.6 13.6 1018 0.0000 0.0000
07:16 14.4 14.4 100 230 5 10.6 1018 0.0000 0.0000
07:26 14.5 14.5 100 248 4.2 8.9 1018 0.0000 0.0000
07:36 14.6 14.6 100 235 3.6 7.5 1018 0.0000 0.0000
07:46 14.7 14.7 100 233 4.2 6.7 1018 0.0000 0.0000
07:55 14.8 14.8 100 212 4.2 8.3 1018 0.0000 0.0000
08:09 14.9 14.7 99 216 4.4 11.4 1018 0.0000 0.0000
08:20 15.1 14.9 99 232 5.8 11.9 1017.9 0.0000 0.0000
08:30 15.2 15 99 236 5.8 10.3 1018 0.0000 0.0000
08:40 15.3 15.1 99 227 5.3 11.4 1018 0.0000 0.0000
08:50 15.5 15.3 99 232 5 10.3 1017.9 0.0000 0.0000
09:01 15.6 15.4 99 226 5 9.7 1017.9 0.0000 0.0000
09:11 15.7 15.5 99 226 5.3 9.7 1017.9 0.0000 0.0000
09:20 15.9 15.7 99 209 2.5 5 1017.7 0.0000 0.0000
09:31 16.1 15.9 99 97 1.9 4.4 1017.7 0.0000 0.0000
09:41 16.3 16 98 90 1.7 4.2 1017.6 0.0000 0.0000
09:46 16.3 16 98 164 1.1 7.8 1017.3 0.0000 0.0000
09:56 16.4 16.1 98 232 5.3 8.9 1017.2 0.0000 0.0000
10:06 16.6 16.3 98 220 2.8 6.7 1017.1 0.0000 0.0000
10:20 16.8 16.5 98 231 5 11.9 1017 0.0000 0.0000
10:30 16.9 16.6 98 218 3.6 6.7 1016.8 0.0000 0.0000
10:39 17.1 16.8 98 230 3.3 8.9 1016.7 0.0000 0.0000
10:49 17.2 16.7 97 231 5 9.7 1016.6 0.0000 0.0000
10:59 17.3 16.8 97 235 6.7 10.3 1016.6 0.0000 0.0000
11:10 17.4 16.9 97 231 6.1 11.1 1016.5 0.0000 0.0000
11:19 17.5 17 97 235 5.8 9.4 1016.4 0.0000 0.0000
11:29 17.7 17.1 96 230 4.2 8.9 1016.3 0.0000 0.0000
11:40 18 17.4 96 237 4.4 7.8 1016.1 0.0000 0.0000
11:50 18.1 17.3 95 233 4.4 6.9 1016 0.0000 0.0000
12:00 18.3 17.5 95 280 1.7 5.3 1016 0.0000 0.0000
12:09 18.4 17.4 94 160 1.1 2.8 1015.8 0.0000 0.0000
12:16 18.4 17.4 94 216 0.8 5.8 1015.7 0.0000 0.0000
12:26 18.5 17.5 94 238 6.1 8.9 1015.6 0.0000 0.0000
12:36 18.6 17.4 93 230 4.4 7.5 1015.6 0.0000 0.0000
12:46 18.9 17.6 92 241 4.4 7.8 1015.4 0.0000 0.0000
12:56 19.1 17.6 91 234 4.4 6.9 1015.4 0.0000 0.0000
13:07 19.3 17.6 90 224 3.6 6.7 1015.2 0.0000 0.0000
13:16 19.4 17.5 89 229 5 7.5 1015.1 0.0000 0.0000
13:26 19.6 17.6 88 234 3.6 7.5 1015 0.0000 0.0000
13:37 19.8 17.4 86 288 3.3 6.7 1014.8 0.0000 0.0000
13:53 20.2 17.2 83 221 2.5 8.3 1014.4 0.0000 0.0000
14:03 20.4 17 81 231 3.6 7.5 1014.4 0.0000 0.0000
14:13 20.7 16.9 79 235 1.9 4.4 1014.3 0.0000 0.0000
14:24 21.1 16.9 77 210 1.1 3.3 1014 0.0000 0.0000
14:30 21.2 16.8 76 214 0.8 8.3 1014 0.0000 0.0000
14:40 21.5 16.7 74 281 2.8 7.5 1013.8 0.0000 0.0000
14:50 21.8 16.5 72 228 4.4 8.6 1013.6 0.0000 0.0000
15:00 22 16.3 70 234 4.4 6.9 1013.5 0.0000 0.0000
15:11 22.2 16 68 228 5.3 8.6 1013.3 0.0000 0.0000
15:21 22.4 15.7 66 256 1.1 6.1 1013.2 0.0000 0.0000
15:29 22.5 15.6 65 221 2.8 6.9 1013.1 0.0000 0.0000
15:39 22.7 15.5 64 229 4.4 8.3 1012.9 0.0000 0.0000
15:49 22.8 15.4 63 135 0.8 1.9 1012.7 0.0000 0.0000
15:59 22.9 15.2 62 117 0.8 2.5 1012.5 0.0000 0.0000
16:10 23 15.3 62 176 0.8 2.5 1012.4 0.0000 0.0000
16:19 23.3 15.1 60 254 1.1 3.3 1012.1 0.0000 0.0000
16:29 23.4 14.7 58 217 2.5 5.3 1012 0.0000 0.0000
16:39 23.4 14.7 58 122 0.8 1.9 1011.8 0.0000 0.0000
16:50 23.6 14.6 57 108 0.8 2.5 1011.6 0.0000 0.0000
17:00 23.5 14.2 56 209 0.8 2.5 1011.5 0.0000 0.0000
17:09 23.4 14.1 56 192 0.8 1.9 1011.3 0.0000 0.0000
17:15 23.4 14.1 56 231 1.1 5.8 1011.2 0.0000 0.0000
17:26 23.4 14.1 56 228 1.7 6.1 1011 0.0000 0.0000
17:35 23.4 13.9 55 295 2.8 5.8 1010.9 0.0000 0.0000
17:45 23.5 13.7 54 299 3.3 6.1 1010.6 0.0000 0.0000
17:56 23.5 13.7 54 218 1.1 2.8 1010.4 0.0000 0.0000
18:06 23.5 13.9 55 172 0.8 1.9 1010.2 0.0000 0.0000
18:16 23.5 13.9 55 182 0.8 2.5 1010.1 0.0000 0.0000
18:26 23.5 13.9 55 199 0.8 2.8 1010.1 0.0000 0.0000
18:36 23.5 13.7 54 170 0.8 2.5 1010 0.0000 0.0000
18:46 23.5 13.7 54 192 0.8 1.9 1009.8 0.0000 0.0000
18:56 23.4 13.6 54 187 1.1 2.5 1009.8 0.0000 0.0000
19:06 23.5 13.4 53 205 1.7 2.8 1009.7 0.0000 0.0000
19:17 23.5 13.4 53 206 1.1 2.5 1009.6 0.0000 0.0000
19:26 23.5 13.4 53 205 1.1 3.3 1009.5 0.0000 0.0000
19:36 23.5 13.1 52 210 1.1 2.5 1009.5 0.0000 0.0000
19:47 23.4 13 52 193 1.1 3.3 1009.4 0.0000 0.0000
19:57 23.2 13.1 53 198 0.8 2.5 1009.3 0.0000 0.0000
20:07 23.1 13 53 200 0.8 1.9 1009.2 0.0000 0.0000
20:17 22.9 13.1 54 200 0.8 1.9 1009.2 0.0000 0.0000
20:27 22.8 13 54 194 0.8 1.9 1009.2 0.0000 0.0000
20:37 22.6 13.1 55 202 0.8 2.5 1009.1 0.0000 0.0000
20:47 22.4 13.2 56 192 0.8 1.9 1009.1 0.0000 0.0000
20:58 22.2 12.7 55 207 0.8 1.7 1009.1 0.0000 0.0000
21:08 22 12.6 55 199 0.8 1.7 1009 0.0000 0.0000
21:17 21.7 12.5 56 204 0.8 1.7 1009 0.0000 0.0000
21:27 21.5 12.6 57 207 0.8 1.1 1009 0.0000 0.0000
21:38 21.2 12.6 58 208 0.8 1.1 1009 0.0000 0.0000
21:48 21 12.7 59 216 0.8 1.7 1009 0.0000 0.0000
21:58 20.8 12.8 60 204 0.3 1.1 1009 0.0000 0.0000
22:08 20.5 12.5 60 203 0.3 1.1 1008.9 0.0000 0.0000
22:18 20.3 12.5 61 197 0.8 1.7 1008.8 0.0000 0.0000
22:28 20 12.5 62 195 0.3 1.9 1008.8 0.0000 0.0000
22:38 19.9 12.4 62 198 0.3 1.1 1008.7 0.0000 0.0000
22:49 19.7 12.5 63 207 0.3 1.1 1008.6 0.0000 0.0000
22:58 19.5 12.3 63 182 0.3 1.1 1008.6 0.0000 0.0000
23:08 19.3 12.1 63 180 0.3 1.1 1008.4 0.0000 0.0000
23:19 19.1 12.1 64 187 0.3 1.1 1008.4 0.0000 0.0000
23:29 18.8 11.9 64 190 0.3 1.1 1008.4 0.0000 0.0000
23:39 18.6 11.9 65 182 0.3 1.1 1008.3 0.0000 0.0000
23:49 18.4 11.7 65 158 0.3 1.7 1008.3 0.0000 0.0000

DAY STATISTIC

2020-06-02
TEMPERATURE
AVERAGE
18.6
HIGH
23.6
16:50
LOW
14.0
05:42
PRESSURE
AVERAGE
1014.4
HIGH
1018.1
00:08
LOW
1008.3
23:39
DEWPOINT
AVERAGE
14.9
HIGH
17.6
12:46
LOW
11.7
23:49
HUMIDITY
AVERAGE
82
HIGH
100
05:42
LOW
52
19:36
WIND SPEED
AVERAGE
2.2
HIGH
7.5
06:44
WIND GUST
AVERAGE
4.8
HIGH
13.6
07:06
WIND DIRECTION
PREVAILING
SW
46.5%
N
0.0
NE
2.8
E
16.9
SE
3.5
S
21.8
SW
46.5
W
5.6
NW
1.4
PRECIPITATION
RAIN HOUR
0.0
RAIN DAY
0.0
TEMPERATURE (°C)
LOW
14.0
HIGH
23.6
AVERAGE
18.6
PRESSURE (hpa)
LOW
1008.3
HIGH
1018.1
AVERAGE
1014.4
DEVICE